PWSweather.com
Personal Weather Stations
Station Observations
KMILAPEE3
Lapeer Michigan, Lapeer, MI 48446

Lapeer MichiganLapeer, MI 48446

Lat: 43.057, Lon: -83.362

Elevation: 897

Station Type: Oregon Scientific WMR-968

Latest ConditionsUpdated 1:37:13 PM EDT Sunday, Jul 5, 2015
Currently Today's Max Today's Min Today's Average
Temperature 79.7°F26.5°C 80.1°F26.7°C 59.4°F15.2°C 66.9°F19.4°C
Dew Point 50.3°F10.2°C 62.3°F16.8°C 45.0°F7.2°C 52.4°F11.3°C
Winds 3.8 mph WSW6.1 kmh WSW 7.1 mph WNW11.4 kmh WNW - 1.2 mph 1.9 kmh
Wind Gusts 12.0 mph19.3 kmh 14.6 mph23.5 kmh - -
Humidity 36% 78% 36% 61%
Pressure 29.18 in988.1 mb 29.18 in988.1 mb 29.09 in985.1 mb -
Hour Temp Dew Point Humidity Winds Wind Gusts Pressure Precip Precip Rate Daily Precip Total
01:37 PM 79.7°F26.5°C 50.3°F10.2°C 36% 3.8 mph WSW6.1 kmh WSW 12.0 mph19.3 kmh 29.18 in988.1 mb 0.00 in0.0 mm 0.00 in0.0 mm 0.00 in0.0 mm
01:29 PM 80.1°F26.7°C 51.6°F10.9°C 37% 4.3 mph SW6.9 kmh SW 7.8 mph12.6 kmh 29.15 in987.1 mb 0.00 in0.0 mm 0.00 in0.0 mm 0.00 in0.0 mm
01:24 PM 80.1°F26.7°C 51.6°F10.9°C 37% 3.7 mph WSW6.0 kmh WSW 8.4 mph13.5 kmh 29.15 in987.1 mb 0.00 in0.0 mm 0.00 in0.0 mm 0.00 in0.0 mm
01:19 PM 79.7°F26.5°C 51.2°F10.7°C 37% 4.6 mph SSW7.4 kmh SSW 8.4 mph13.5 kmh 29.15 in987.1 mb 0.00 in0.0 mm 0.00 in0.0 mm 0.00 in0.0 mm
01:14 PM 79.7°F26.5°C 51.2°F10.7°C 37% 4.9 mph SW7.9 kmh SW 9.7 mph15.6 kmh 29.15 in987.1 mb 0.00 in0.0 mm 0.00 in0.0 mm 0.00 in0.0 mm
01:09 PM 79.5°F26.4°C 51.1°F10.6°C 37% 5.3 mph SSW8.5 kmh SSW 9.7 mph15.6 kmh 29.15 in987.1 mb 0.00 in0.0 mm 0.00 in0.0 mm 0.00 in0.0 mm
01:04 PM 79.3°F26.3°C 50.9°F10.5°C 37% 3.0 mph S4.8 kmh S 5.8 mph9.3 kmh 29.15 in987.1 mb 0.00 in0.0 mm 0.00 in0.0 mm 0.00 in0.0 mm
12:59 PM 78.8°F26.0°C 51.3°F10.7°C 39% 3.0 mph NW4.8 kmh NW 5.8 mph9.3 kmh 29.15 in987.1 mb 0.00 in0.0 mm 0.00 in0.0 mm 0.00 in0.0 mm
12:54 PM 78.8°F26.0°C 51.3°F10.7°C 39% 3.6 mph WSW5.8 kmh WSW 7.8 mph12.6 kmh 29.15 in987.1 mb 0.00 in0.0 mm 0.00 in0.0 mm 0.00 in0.0 mm
12:47 PM 78.4°F25.8°C 50.1°F10.1°C 37% 4.6 mph WSW7.4 kmh WSW 11.0 mph17.7 kmh 29.18 in988.1 mb 0.00 in0.0 mm 0.00 in0.0 mm 0.00 in0.0 mm
12:42 PM 78.1°F25.6°C 51.5°F10.8°C 40% 4.8 mph WSW7.7 kmh WSW 9.1 mph14.6 kmh 29.18 in988.1 mb 0.00 in0.0 mm 0.00 in0.0 mm 0.00 in0.0 mm
12:37 PM 77.9°F25.5°C 51.4°F10.8°C 40% 5.4 mph WNW8.7 kmh WNW 14.6 mph23.5 kmh 29.18 in988.1 mb 0.00 in0.0 mm 0.00 in0.0 mm 0.00 in0.0 mm
12:32 PM 77.9°F25.5°C 51.4°F10.8°C 40% 5.0 mph W8.0 kmh W 14.6 mph23.5 kmh 29.18 in988.1 mb 0.00 in0.0 mm 0.00 in0.0 mm 0.00 in0.0 mm
12:27 PM 78.3°F25.7°C 51.7°F10.9°C 40% 7.1 mph WNW11.4 kmh WNW 11.0 mph17.7 kmh 29.18 in988.1 mb 0.00 in0.0 mm 0.00 in0.0 mm 0.00 in0.0 mm
12:22 PM 78.3°F25.7°C 51.7°F10.9°C 40% Calm Calm 9.1 mph14.6 kmh 29.18 in988.1 mb 0.00 in0.0 mm 0.00 in0.0 mm 0.00 in0.0 mm
12:17 PM 77.9°F25.5°C 51.4°F10.8°C 40% 4.6 mph WSW7.4 kmh WSW 9.1 mph14.6 kmh 29.18 in988.1 mb 0.00 in0.0 mm 0.00 in0.0 mm 0.00 in0.0 mm
12:12 PM 77.7°F25.4°C 51.2°F10.7°C 40% 3.0 mph SW4.8 kmh SW 7.8 mph12.6 kmh 29.18 in988.1 mb 0.00 in0.0 mm 0.00 in0.0 mm 0.00 in0.0 mm
12:07 PM 77.4°F25.2°C 51.7°F10.9°C 41% 3.0 mph SW4.8 kmh SW 8.4 mph13.5 kmh 29.18 in988.1 mb 0.00 in0.0 mm 0.00 in0.0 mm 0.00 in0.0 mm
12:02 PM 77.0°F25.0°C 51.4°F10.8°C 41% 3.8 mph SW6.1 kmh SW 9.1 mph14.6 kmh 29.18 in988.1 mb 0.00 in0.0 mm 0.00 in0.0 mm 0.00 in0.0 mm
11:57 AM 77.0°F25.0°C 51.4°F10.8°C 41% 6.3 mph W10.1 kmh W 11.7 mph18.8 kmh 29.18 in988.1 mb 0.00 in0.0 mm 0.00 in0.0 mm 0.00 in0.0 mm
11:52 AM 77.0°F25.0°C 50.6°F10.3°C 40% 5.5 mph WSW8.9 kmh WSW 11.7 mph18.8 kmh 29.18 in988.1 mb 0.00 in0.0 mm 0.00 in0.0 mm 0.00 in0.0 mm
11:47 AM 77.0°F25.0°C 52.2°F11.2°C 42% 3.8 mph SSW6.1 kmh SSW 9.1 mph14.6 kmh 29.18 in988.1 mb 0.00 in0.0 mm 0.00 in0.0 mm 0.00 in0.0 mm
11:42 AM 76.8°F24.9°C 52.0°F11.1°C 42% 4.3 mph SW6.9 kmh SW 7.8 mph12.6 kmh 29.18 in988.1 mb 0.00 in0.0 mm 0.00 in0.0 mm 0.00 in0.0 mm
11:37 AM 76.5°F24.7°C 50.9°F10.5°C 41% 3.7 mph W6.0 kmh W 11.0 mph17.7 kmh 29.18 in988.1 mb 0.00 in0.0 mm 0.00 in0.0 mm 0.00 in0.0 mm
11:32 AM 76.3°F24.6°C 51.5°F10.8°C 42% 4.9 mph SW7.9 kmh SW 13.3 mph21.4 kmh 29.18 in988.1 mb 0.00 in0.0 mm 0.00 in0.0 mm 0.00 in0.0 mm
11:25 AM 76.1°F24.5°C 52.1°F11.2°C 43% 5.6 mph SW9.0 kmh SW 12.0 mph19.3 kmh 29.18 in988.1 mb 0.00 in0.0 mm 0.00 in0.0 mm 0.00 in0.0 mm
11:20 AM 76.1°F24.5°C 52.9°F11.6°C 45% 3.1 mph SSW5.0 kmh SSW 8.4 mph13.5 kmh 29.18 in988.1 mb 0.00 in0.0 mm 0.00 in0.0 mm 0.00 in0.0 mm
11:14 AM 75.9°F24.4°C 54.8°F12.7°C 48% 4.0 mph SSW6.4 kmh SSW 9.7 mph15.6 kmh 29.18 in988.1 mb 0.00 in0.0 mm 0.00 in0.0 mm 0.00 in0.0 mm
11:09 AM 75.6°F24.2°C 53.9°F12.2°C 47% 4.3 mph SW6.9 kmh SW 9.7 mph15.6 kmh 29.18 in988.1 mb 0.00 in0.0 mm 0.00 in0.0 mm 0.00 in0.0 mm
11:04 AM 75.4°F24.1°C 55.1°F12.8°C 49% 3.7 mph SW6.0 kmh SW 8.4 mph13.5 kmh 29.18 in988.1 mb 0.00 in0.0 mm 0.00 in0.0 mm 0.00 in0.0 mm
10:59 AM 75.4°F24.1°C 56.4°F13.6°C 52% 3.0 mph WSW4.8 kmh WSW 7.8 mph12.6 kmh 29.18 in988.1 mb 0.00 in0.0 mm 0.00 in0.0 mm 0.00 in0.0 mm
10:54 AM 75.2°F24.0°C 57.5°F14.2°C 54% 3.9 mph WSW6.3 kmh WSW 7.1 mph11.4 kmh 29.18 in988.1 mb 0.00 in0.0 mm 0.00 in0.0 mm 0.00 in0.0 mm
10:49 AM 75.2°F24.0°C 57.5°F14.2°C 54% 3.7 mph WSW6.0 kmh WSW 9.7 mph15.6 kmh 29.18 in988.1 mb 0.00 in0.0 mm 0.00 in0.0 mm 0.00 in0.0 mm
10:44 AM 75.0°F23.9°C 57.3°F14.1°C 54% 4.4 mph WSW7.1 kmh WSW 9.7 mph15.6 kmh 29.18 in988.1 mb 0.00 in0.0 mm 0.00 in0.0 mm 0.00 in0.0 mm
10:39 AM 74.8°F23.8°C 57.7°F14.3°C 55% 3.7 mph SW6.0 kmh SW 5.8 mph9.3 kmh 29.18 in988.1 mb 0.00 in0.0 mm 0.00 in0.0 mm 0.00 in0.0 mm
10:34 AM 74.5°F23.6°C 58.0°F14.4°C 56% Calm Calm 4.5 mph7.2 kmh 29.18 in988.1 mb 0.00 in0.0 mm 0.00 in0.0 mm 0.00 in0.0 mm
10:29 AM 74.1°F23.4°C 57.6°F14.2°C 56% Calm Calm 7.8 mph12.6 kmh 29.18 in988.1 mb 0.00 in0.0 mm 0.00 in0.0 mm 0.00 in0.0 mm
10:24 AM 73.8°F23.2°C 56.1°F13.4°C 54% 3.2 mph WSW5.1 kmh WSW 7.8 mph12.6 kmh 29.18 in988.1 mb 0.00 in0.0 mm 0.00 in0.0 mm 0.00 in0.0 mm
10:19 AM 73.8°F23.2°C 57.9°F14.4°C 57% Calm Calm 7.8 mph12.6 kmh 29.18 in988.1 mb 0.00 in0.0 mm 0.00 in0.0 mm 0.00 in0.0 mm
10:14 AM 73.6°F23.1°C 57.7°F14.3°C 57% 3.3 mph WSW5.3 kmh WSW 7.8 mph12.6 kmh 29.18 in988.1 mb 0.00 in0.0 mm 0.00 in0.0 mm 0.00 in0.0 mm
10:09 AM 73.4°F23.0°C 60.3°F15.7°C 63% 3.0 mph WSW4.8 kmh WSW 5.8 mph9.3 kmh 29.18 in988.1 mb 0.00 in0.0 mm 0.00 in0.0 mm 0.00 in0.0 mm
10:04 AM 72.3°F22.4°C 60.3°F15.7°C 66% 3.0 mph WSW4.8 kmh WSW 5.8 mph9.3 kmh 29.18 in988.1 mb 0.00 in0.0 mm 0.00 in0.0 mm 0.00 in0.0 mm
09:59 AM 72.3°F22.4°C 60.3°F15.7°C 66% 3.3 mph WSW5.3 kmh WSW 5.2 mph8.4 kmh 29.18 in988.1 mb 0.00 in0.0 mm 0.00 in0.0 mm 0.00 in0.0 mm
09:54 AM 72.3°F22.4°C 60.3°F15.7°C 66% Calm Calm 7.1 mph11.4 kmh 29.18 in988.1 mb 0.00 in0.0 mm 0.00 in0.0 mm 0.00 in0.0 mm
09:47 AM 72.0°F22.2°C 60.5°F15.8°C 67% 3.5 mph W5.6 kmh W 7.1 mph11.4 kmh 29.18 in988.1 mb 0.00 in0.0 mm 0.00 in0.0 mm 0.00 in0.0 mm
09:41 AM 71.6°F22.0°C 62.0°F16.7°C 71% Calm Calm 7.1 mph11.4 kmh 29.18 in988.1 mb 0.00 in0.0 mm 0.00 in0.0 mm 0.00 in0.0 mm
09:36 AM 71.4°F21.9°C 62.3°F16.8°C 73% 3.6 mph WSW5.8 kmh WSW 7.1 mph11.4 kmh 29.18 in988.1 mb 0.00 in0.0 mm 0.00 in0.0 mm 0.00 in0.0 mm
09:31 AM 70.9°F21.6°C 62.2°F16.8°C 74% 3.8 mph W6.1 kmh W 7.1 mph11.4 kmh 29.18 in988.1 mb 0.00 in0.0 mm 0.00 in0.0 mm 0.00 in0.0 mm
09:26 AM 70.5°F21.4°C 62.3°F16.8°C 75% 3.0 mph W4.8 kmh W 5.8 mph9.3 kmh 29.18 in988.1 mb 0.00 in0.0 mm 0.00 in0.0 mm 0.00 in0.0 mm
09:21 AM 70.3°F21.3°C 62.1°F16.7°C 75% Calm Calm -- 29.18 in988.1 mb 0.00 in0.0 mm 0.00 in0.0 mm 0.00 in0.0 mm
09:16 AM 70.0°F21.1°C 61.8°F16.6°C 75% Calm Calm 4.5 mph7.2 kmh 29.18 in988.1 mb 0.00 in0.0 mm 0.00 in0.0 mm 0.00 in0.0 mm
09:11 AM 69.6°F20.9°C 61.4°F16.3°C 75% Calm Calm 4.5 mph7.2 kmh 29.18 in988.1 mb 0.00 in0.0 mm 0.00 in0.0 mm 0.00 in0.0 mm
09:06 AM 69.3°F20.7°C 61.5°F16.4°C 76% Calm Calm 4.5 mph7.2 kmh 29.18 in988.1 mb 0.00 in0.0 mm 0.00 in0.0 mm 0.00 in0.0 mm
09:00 AM 68.9°F20.5°C 61.1°F16.2°C 76% Calm Calm 4.5 mph7.2 kmh 29.15 in987.1 mb 0.00 in0.0 mm 0.00 in0.0 mm 0.00 in0.0 mm
08:55 AM 68.5°F20.3°C 60.7°F15.9°C 76% Calm Calm 4.5 mph7.2 kmh 29.15 in987.1 mb 0.00 in0.0 mm 0.00 in0.0 mm 0.00 in0.0 mm
08:50 AM 68.4°F20.2°C 61.0°F16.1°C 77% Calm Calm 4.5 mph7.2 kmh 29.15 in987.1 mb 0.00 in0.0 mm 0.00 in0.0 mm 0.00 in0.0 mm
08:45 AM 68.0°F20.0°C 60.6°F15.9°C 77% Calm Calm -- 29.15 in987.1 mb 0.00 in0.0 mm 0.00 in0.0 mm 0.00 in0.0 mm
08:40 AM 67.6°F19.8°C 60.2°F15.7°C 77% Calm Calm -- 29.15 in987.1 mb 0.00 in0.0 mm 0.00 in0.0 mm 0.00 in0.0 mm
08:35 AM 67.3°F19.6°C 59.9°F15.5°C 77% Calm Calm -- 29.15 in987.1 mb 0.00 in0.0 mm 0.00 in0.0 mm 0.00 in0.0 mm
08:29 AM 66.9°F19.4°C 59.5°F15.3°C 77% Calm Calm 3.2 mph5.1 kmh 29.15 in987.1 mb 0.00 in0.0 mm 0.00 in0.0 mm 0.00 in0.0 mm
08:24 AM 66.2°F19.0°C 58.9°F14.9°C 77% Calm Calm 5.2 mph8.4 kmh 29.15 in987.1 mb 0.00 in0.0 mm 0.00 in0.0 mm 0.00 in0.0 mm
08:19 AM 66.2°F19.0°C 58.8°F14.9°C 77% Calm Calm 4.5 mph7.2 kmh 29.15 in987.1 mb 0.00 in0.0 mm 0.00 in0.0 mm 0.00 in0.0 mm
08:14 AM 65.7°F18.7°C 58.8°F14.9°C 78% Calm Calm -- 29.15 in987.1 mb 0.00 in0.0 mm 0.00 in0.0 mm 0.00 in0.0 mm
08:08 AM 65.1°F18.4°C 58.2°F14.6°C 78% Calm Calm -- 29.15 in987.1 mb 0.00 in0.0 mm 0.00 in0.0 mm 0.00 in0.0 mm
08:02 AM 64.8°F18.2°C 57.5°F14.2°C 77% Calm Calm -- 29.15 in987.1 mb 0.00 in0.0 mm 0.00 in0.0 mm 0.00 in0.0 mm
07:58 AM 64.2°F17.9°C 56.9°F13.8°C 77% Calm Calm -- 29.15 in987.1 mb 0.00 in0.0 mm 0.00 in0.0 mm 0.00 in0.0 mm
07:52 AM 63.5°F17.5°C 55.8°F13.2°C 76% Calm Calm -- 29.15 in987.1 mb 0.00 in0.0 mm 0.00 in0.0 mm 0.00 in0.0 mm
07:47 AM 63.3°F17.4°C 55.6°F13.1°C 76% Calm Calm 3.9 mph6.3 kmh 29.15 in987.1 mb 0.00 in0.0 mm 0.00 in0.0 mm 0.00 in0.0 mm
07:42 AM 63.0°F17.2°C 55.3°F12.9°C 76% Calm Calm 3.9 mph6.3 kmh 29.15 in987.1 mb 0.00 in0.0 mm 0.00 in0.0 mm 0.00 in0.0 mm
07:37 AM 62.6°F17.0°C 54.4°F12.4°C 74% Calm Calm -- 29.15 in987.1 mb 0.00 in0.0 mm 0.00 in0.0 mm 0.00 in0.0 mm
07:32 AM 62.2°F16.8°C 54.5°F12.5°C 76% Calm Calm -- 29.15 in987.1 mb 0.00 in0.0 mm 0.00 in0.0 mm 0.00 in0.0 mm
07:27 AM 61.9°F16.6°C 53.7°F12.1°C 74% Calm Calm 4.5 mph7.2 kmh 29.15 in987.1 mb 0.00 in0.0 mm 0.00 in0.0 mm 0.00 in0.0 mm
07:22 AM 61.5°F16.4°C 53.4°F11.9°C 74% Calm Calm 4.5 mph7.2 kmh 29.15 in987.1 mb 0.00 in0.0 mm 0.00 in0.0 mm 0.00 in0.0 mm
07:16 AM 61.0°F16.1°C 52.4°F11.3°C 73% Calm Calm 3.2 mph5.1 kmh 29.15 in987.1 mb 0.00 in0.0 mm 0.00 in0.0 mm 0.00 in0.0 mm
07:11 AM 60.8°F16.0°C 52.2°F11.2°C 73% Calm Calm -- 29.15 in987.1 mb 0.00 in0.0 mm 0.00 in0.0 mm 0.00 in0.0 mm
07:06 AM 60.4°F15.8°C 51.8°F11.0°C 73% Calm Calm -- 29.15 in987.1 mb 0.00 in0.0 mm 0.00 in0.0 mm 0.00 in0.0 mm
07:01 AM 60.3°F15.7°C 51.3°F10.7°C 72% Calm Calm -- 29.15 in987.1 mb 0.00 in0.0 mm 0.00 in0.0 mm 0.00 in0.0 mm
06:56 AM 60.1°F15.6°C 51.1°F10.6°C 72% Calm Calm -- 29.15 in987.1 mb 0.00 in0.0 mm 0.00 in0.0 mm 0.00 in0.0 mm
06:51 AM 59.7°F15.4°C 50.7°F10.4°C 72% Calm Calm -- 29.15 in987.1 mb 0.00 in0.0 mm 0.00 in0.0 mm 0.00 in0.0 mm
06:46 AM 59.7°F15.4°C 50.3°F10.2°C 71% Calm Calm -- 29.15 in987.1 mb 0.00 in0.0 mm 0.00 in0.0 mm 0.00 in0.0 mm
06:41 AM 59.7°F15.4°C 50.2°F10.1°C 71% Calm Calm -- 29.15 in987.1 mb 0.00 in0.0 mm 0.00 in0.0 mm 0.00 in0.0 mm
06:36 AM 59.5°F15.3°C 50.0°F10.0°C 71% Calm Calm -- 29.15 in987.1 mb 0.00 in0.0 mm 0.00 in0.0 mm 0.00 in0.0 mm
06:31 AM 59.5°F15.3°C 49.6°F9.8°C 69% Calm Calm -- 29.15 in987.1 mb 0.00 in0.0 mm 0.00 in0.0 mm 0.00 in0.0 mm
06:26 AM 59.7°F15.4°C 49.8°F9.9°C 69% Calm Calm -- 29.15 in987.1 mb 0.00 in0.0 mm 0.00 in0.0 mm 0.00 in0.0 mm
06:21 AM 59.7°F15.4°C 49.8°F9.9°C 69% Calm Calm -- 29.15 in987.1 mb 0.00 in0.0 mm 0.00 in0.0 mm 0.00 in0.0 mm
06:16 AM 59.5°F15.3°C 49.6°F9.8°C 69% Calm Calm -- 29.12 in986.1 mb 0.00 in0.0 mm 0.00 in0.0 mm 0.00 in0.0 mm
06:11 AM 59.4°F15.2°C 49.5°F9.7°C 69% Calm Calm -- 29.12 in986.1 mb 0.00 in0.0 mm 0.00 in0.0 mm 0.00 in0.0 mm
06:06 AM 59.4°F15.2°C 49.1°F9.5°C 68% Calm Calm -- 29.12 in986.1 mb 0.00 in0.0 mm 0.00 in0.0 mm 0.00 in0.0 mm
06:01 AM 59.5°F15.3°C 49.2°F9.6°C 68% Calm Calm -- 29.12 in986.1 mb 0.00 in0.0 mm 0.00 in0.0 mm 0.00 in0.0 mm
05:56 AM 59.7°F15.4°C 49.4°F9.7°C 68% Calm Calm 7.1 mph11.4 kmh 29.12 in986.1 mb 0.00 in0.0 mm 0.00 in0.0 mm 0.00 in0.0 mm
05:51 AM 59.7°F15.4°C 49.4°F9.7°C 68% Calm Calm 7.1 mph11.4 kmh 29.12 in986.1 mb 0.00 in0.0 mm 0.00 in0.0 mm 0.00 in0.0 mm
05:46 AM 59.7°F15.4°C 49.4°F9.7°C 68% Calm Calm 5.8 mph9.3 kmh 29.12 in986.1 mb 0.00 in0.0 mm 0.00 in0.0 mm 0.00 in0.0 mm
05:41 AM 59.7°F15.4°C 49.4°F9.7°C 68% Calm Calm 5.8 mph9.3 kmh 29.12 in986.1 mb 0.00 in0.0 mm 0.00 in0.0 mm 0.00 in0.0 mm
05:35 AM 59.5°F15.3°C 48.8°F9.3°C 67% Calm Calm 3.2 mph5.1 kmh 29.12 in986.1 mb 0.00 in0.0 mm 0.00 in0.0 mm 0.00 in0.0 mm
05:30 AM 59.7°F15.4°C 49.0°F9.4°C 67% Calm Calm -- 29.12 in986.1 mb 0.00 in0.0 mm 0.00 in0.0 mm 0.00 in0.0 mm
05:25 AM 59.7°F15.4°C 49.0°F9.4°C 67% Calm Calm 3.2 mph5.1 kmh 29.12 in986.1 mb 0.00 in0.0 mm 0.00 in0.0 mm 0.00 in0.0 mm
05:20 AM 59.7°F15.4°C 49.0°F9.4°C 67% Calm Calm 3.2 mph5.1 kmh 29.12 in986.1 mb 0.00 in0.0 mm 0.00 in0.0 mm 0.00 in0.0 mm
05:14 AM 59.9°F15.5°C 48.7°F9.3°C 66% Calm Calm -- 29.12 in986.1 mb 0.00 in0.0 mm 0.00 in0.0 mm 0.00 in0.0 mm
05:09 AM 60.1°F15.6°C 48.9°F9.4°C 66% Calm Calm -- 29.12 in986.1 mb 0.00 in0.0 mm 0.00 in0.0 mm 0.00 in0.0 mm
05:03 AM 60.1°F15.6°C 49.0°F9.4°C 66% Calm Calm 4.5 mph7.2 kmh 29.12 in986.1 mb 0.00 in0.0 mm 0.00 in0.0 mm 0.00 in0.0 mm
04:58 AM 60.1°F15.6°C 49.0°F9.4°C 66% Calm Calm 4.5 mph7.2 kmh 29.12 in986.1 mb 0.00 in0.0 mm 0.00 in0.0 mm 0.00 in0.0 mm
04:52 AM 60.3°F15.7°C 49.2°F9.6°C 66% Calm Calm 3.2 mph5.1 kmh 29.12 in986.1 mb 0.00 in0.0 mm 0.00 in0.0 mm 0.00 in0.0 mm
04:47 AM 60.4°F15.8°C 48.8°F9.3°C 65% Calm Calm 3.2 mph5.1 kmh 29.12 in986.1 mb 0.00 in0.0 mm 0.00 in0.0 mm 0.00 in0.0 mm
04:42 AM 60.6°F15.9°C 49.0°F9.4°C 65% Calm Calm 3.2 mph5.1 kmh 29.12 in986.1 mb 0.00 in0.0 mm 0.00 in0.0 mm 0.00 in0.0 mm
04:37 AM 60.6°F15.9°C 49.0°F9.4°C 65% Calm Calm 3.9 mph6.3 kmh 29.12 in986.1 mb 0.00 in0.0 mm 0.00 in0.0 mm 0.00 in0.0 mm
04:32 AM 61.0°F16.1°C 49.4°F9.7°C 65% Calm Calm 3.9 mph6.3 kmh 29.12 in986.1 mb 0.00 in0.0 mm 0.00 in0.0 mm 0.00 in0.0 mm
04:27 AM 61.2°F16.2°C 49.6°F9.8°C 65% Calm Calm 3.2 mph5.1 kmh 29.12 in986.1 mb 0.00 in0.0 mm 0.00 in0.0 mm 0.00 in0.0 mm
04:21 AM 61.3°F16.3°C 49.7°F9.8°C 65% Calm Calm -- 29.12 in986.1 mb 0.00 in0.0 mm 0.00 in0.0 mm 0.00 in0.0 mm
04:16 AM 61.5°F16.4°C 49.9°F9.9°C 65% Calm Calm 3.2 mph5.1 kmh 29.12 in986.1 mb 0.00 in0.0 mm 0.00 in0.0 mm 0.00 in0.0 mm
04:11 AM 61.5°F16.4°C 49.9°F9.9°C 65% Calm Calm 3.2 mph5.1 kmh 29.12 in986.1 mb 0.00 in0.0 mm 0.00 in0.0 mm 0.00 in0.0 mm
04:06 AM 61.5°F16.4°C 49.9°F9.9°C 65% Calm Calm 3.2 mph5.1 kmh 29.12 in986.1 mb 0.00 in0.0 mm 0.00 in0.0 mm 0.00 in0.0 mm
04:01 AM 61.5°F16.4°C 49.4°F9.7°C 64% Calm Calm -- 29.12 in986.1 mb 0.00 in0.0 mm 0.00 in0.0 mm 0.00 in0.0 mm
03:56 AM 61.7°F16.5°C 49.6°F9.8°C 64% Calm Calm -- 29.12 in986.1 mb 0.00 in0.0 mm 0.00 in0.0 mm 0.00 in0.0 mm
03:51 AM 62.1°F16.7°C 50.0°F10.0°C 64% Calm Calm -- 29.12 in986.1 mb 0.00 in0.0 mm 0.00 in0.0 mm 0.00 in0.0 mm
03:46 AM 62.2°F16.8°C 50.1°F10.1°C 64% Calm Calm -- 29.12 in986.1 mb 0.00 in0.0 mm 0.00 in0.0 mm 0.00 in0.0 mm
03:40 AM 62.6°F17.0°C 50.5°F10.3°C 64% Calm Calm -- 29.12 in986.1 mb 0.00 in0.0 mm 0.00 in0.0 mm 0.00 in0.0 mm
03:35 AM 63.0°F17.2°C 50.9°F10.5°C 64% Calm Calm 3.9 mph6.3 kmh 29.12 in986.1 mb 0.00 in0.0 mm 0.00 in0.0 mm 0.00 in0.0 mm
03:30 AM 63.1°F17.3°C 52.0°F11.1°C 67% Calm Calm 3.9 mph6.3 kmh 29.12 in986.1 mb 0.00 in0.0 mm 0.00 in0.0 mm 0.00 in0.0 mm
03:25 AM 63.0°F17.2°C 51.4°F10.8°C 66% Calm Calm 3.9 mph6.3 kmh 29.12 in986.1 mb 0.00 in0.0 mm 0.00 in0.0 mm 0.00 in0.0 mm
03:20 AM 62.6°F17.0°C 50.1°F10.1°C 63% Calm Calm 3.2 mph5.1 kmh 29.09 in985.1 mb 0.00 in0.0 mm 0.00 in0.0 mm 0.00 in0.0 mm
03:15 AM 62.8°F17.1°C 49.2°F9.6°C 61% Calm Calm -- 29.09 in985.1 mb 0.00 in0.0 mm 0.00 in0.0 mm 0.00 in0.0 mm
03:10 AM 63.0°F17.2°C 49.4°F9.7°C 61% Calm Calm -- 29.09 in985.1 mb 0.00 in0.0 mm 0.00 in0.0 mm 0.00 in0.0 mm
03:05 AM 63.1°F17.3°C 49.5°F9.7°C 61% Calm Calm -- 29.09 in985.1 mb 0.00 in0.0 mm 0.00 in0.0 mm 0.00 in0.0 mm
03:00 AM 63.5°F17.5°C 49.9°F9.9°C 61% Calm Calm -- 29.09 in985.1 mb 0.00 in0.0 mm 0.00 in0.0 mm 0.00 in0.0 mm
02:55 AM 63.9°F17.7°C 50.8°F10.4°C 62% Calm Calm -- 29.09 in985.1 mb 0.00 in0.0 mm 0.00 in0.0 mm 0.00 in0.0 mm
02:50 AM 64.0°F17.8°C 50.9°F10.5°C 62% Calm Calm -- 29.09 in985.1 mb 0.00 in0.0 mm 0.00 in0.0 mm 0.00 in0.0 mm
02:45 AM 64.2°F17.9°C 51.1°F10.6°C 62% Calm Calm 7.1 mph11.4 kmh 29.09 in985.1 mb 0.00 in0.0 mm 0.00 in0.0 mm 0.00 in0.0 mm
02:40 AM 64.2°F17.9°C 51.1°F10.6°C 62% 3.0 mph WSW4.8 kmh WSW 7.1 mph11.4 kmh 29.09 in985.1 mb 0.00 in0.0 mm 0.00 in0.0 mm 0.00 in0.0 mm
02:35 AM 64.4°F18.0°C 50.3°F10.2°C 60% Calm Calm 6.5 mph10.5 kmh 29.09 in985.1 mb 0.00 in0.0 mm 0.00 in0.0 mm 0.00 in0.0 mm
02:30 AM 64.6°F18.1°C 51.0°F10.6°C 61% Calm Calm 5.2 mph8.4 kmh 29.09 in985.1 mb 0.00 in0.0 mm 0.00 in0.0 mm 0.00 in0.0 mm
02:25 AM 64.8°F18.2°C 51.7°F10.9°C 62% Calm Calm 5.2 mph8.4 kmh 29.09 in985.1 mb 0.00 in0.0 mm 0.00 in0.0 mm 0.00 in0.0 mm
02:18 AM 64.8°F18.2°C 50.7°F10.4°C 60% Calm Calm 7.8 mph12.6 kmh 29.09 in985.1 mb 0.00 in0.0 mm 0.00 in0.0 mm 0.00 in0.0 mm
02:13 AM 64.8°F18.2°C 51.2°F10.7°C 61% 3.0 mph SW4.8 kmh SW 7.8 mph12.6 kmh 29.09 in985.1 mb 0.00 in0.0 mm 0.00 in0.0 mm 0.00 in0.0 mm
02:08 AM 64.8°F18.2°C 51.2°F10.7°C 61% 3.4 mph SW5.5 kmh SW 9.1 mph14.6 kmh 29.09 in985.1 mb 0.00 in0.0 mm 0.00 in0.0 mm 0.00 in0.0 mm
02:03 AM 64.6°F18.1°C 50.5°F10.3°C 60% 3.7 mph WSW6.0 kmh WSW 9.1 mph14.6 kmh 29.09 in985.1 mb 0.00 in0.0 mm 0.00 in0.0 mm 0.00 in0.0 mm
01:58 AM 64.4°F18.0°C 49.8°F9.9°C 59% 4.3 mph WSW6.9 kmh WSW 7.8 mph12.6 kmh 29.09 in985.1 mb 0.00 in0.0 mm 0.00 in0.0 mm 0.00 in0.0 mm
01:53 AM 64.4°F18.0°C 50.3°F10.2°C 60% Calm Calm 5.2 mph8.4 kmh 29.09 in985.1 mb 0.00 in0.0 mm 0.00 in0.0 mm 0.00 in0.0 mm
01:48 AM 64.0°F17.8°C 50.0°F10.0°C 60% Calm Calm 3.9 mph6.3 kmh 29.09 in985.1 mb 0.00 in0.0 mm 0.00 in0.0 mm 0.00 in0.0 mm
01:43 AM 63.9°F17.7°C 48.8°F9.3°C 58% Calm Calm 3.9 mph6.3 kmh 29.09 in985.1 mb 0.00 in0.0 mm 0.00 in0.0 mm 0.00 in0.0 mm
01:37 AM 63.7°F17.6°C 48.6°F9.2°C 58% Calm Calm -- 29.09 in985.1 mb 0.00 in0.0 mm 0.00 in0.0 mm 0.00 in0.0 mm
01:33 AM 63.7°F17.6°C 48.6°F9.2°C 58% Calm Calm -- 29.09 in985.1 mb 0.00 in0.0 mm 0.00 in0.0 mm 0.00 in0.0 mm
01:27 AM 63.9°F17.7°C 48.2°F9.0°C 57% Calm Calm -- 29.09 in985.1 mb 0.00 in0.0 mm 0.00 in0.0 mm 0.00 in0.0 mm
01:22 AM 63.9°F17.7°C 48.2°F9.0°C 57% Calm Calm -- 29.09 in985.1 mb 0.00 in0.0 mm 0.00 in0.0 mm 0.00 in0.0 mm
01:17 AM 64.0°F17.8°C 48.3°F9.1°C 57% Calm Calm -- 29.09 in985.1 mb 0.00 in0.0 mm 0.00 in0.0 mm 0.00 in0.0 mm
01:12 AM 64.2°F17.9°C 48.5°F9.2°C 57% Calm Calm -- 29.09 in985.1 mb 0.00 in0.0 mm 0.00 in0.0 mm 0.00 in0.0 mm
01:06 AM 64.4°F18.0°C 48.7°F9.3°C 57% Calm Calm 5.8 mph9.3 kmh 29.09 in985.1 mb 0.00 in0.0 mm 0.00 in0.0 mm 0.00 in0.0 mm
01:01 AM 64.8°F18.2°C 49.7°F9.8°C 58% Calm Calm 5.8 mph9.3 kmh 29.09 in985.1 mb 0.00 in0.0 mm 0.00 in0.0 mm 0.00 in0.0 mm
12:56 AM 64.6°F18.1°C 50.0°F10.0°C 59% 3.0 mph WSW4.8 kmh WSW 5.8 mph9.3 kmh 29.09 in985.1 mb 0.00 in0.0 mm 0.00 in0.0 mm 0.00 in0.0 mm
12:51 AM 63.9°F17.7°C 48.8°F9.3°C 58% Calm Calm 5.8 mph9.3 kmh 29.09 in985.1 mb 0.00 in0.0 mm 0.00 in0.0 mm 0.00 in0.0 mm
12:46 AM 63.3°F17.4°C 47.1°F8.4°C 55% Calm Calm 5.8 mph9.3 kmh 29.09 in985.1 mb 0.00 in0.0 mm 0.00 in0.0 mm 0.00 in0.0 mm
12:41 AM 63.0°F17.2°C 46.9°F8.3°C 55% 3.0 mph SW4.8 kmh SW 3.9 mph6.3 kmh 29.09 in985.1 mb 0.00 in0.0 mm 0.00 in0.0 mm 0.00 in0.0 mm
12:36 AM 63.0°F17.2°C 46.9°F8.3°C 55% Calm Calm 3.9 mph6.3 kmh 29.09 in985.1 mb 0.00 in0.0 mm 0.00 in0.0 mm 0.00 in0.0 mm
12:31 AM 62.8°F17.1°C 46.1°F7.8°C 54% Calm Calm -- 29.09 in985.1 mb 0.00 in0.0 mm 0.00 in0.0 mm 0.00 in0.0 mm
12:25 AM 62.4°F16.9°C 45.7°F7.6°C 54% Calm Calm -- 29.09 in985.1 mb 0.00 in0.0 mm 0.00 in0.0 mm 0.00 in0.0 mm
12:20 AM 62.4°F16.9°C 45.7°F7.6°C 54% Calm Calm -- 29.09 in985.1 mb 0.00 in0.0 mm 0.00 in0.0 mm 0.00 in0.0 mm
12:15 AM 62.2°F16.8°C 45.5°F7.5°C 54% Calm Calm -- 29.09 in985.1 mb 0.00 in0.0 mm 0.00 in0.0 mm 0.00 in0.0 mm
12:10 AM 62.2°F16.8°C 45.0°F7.2°C 53% Calm Calm -- 29.09 in985.1 mb 0.00 in0.0 mm 0.00 in0.0 mm 0.00 in0.0 mm
12:05 AM 62.4°F16.9°C 45.1°F7.3°C 53% Calm Calm -- 29.09 in985.1 mb 0.00 in0.0 mm 0.00 in0.0 mm 0.00 in0.0 mm
12:00 AM 62.6°F17.0°C 45.3°F7.4°C 53% Calm Calm -- 29.09 in985.1 mb 0.00 in0.0 mm 0.00 in0.0 mm 0.00 in0.0 mm